sensor_id;sensor_type;location;lat;lon;timestamp;P1;durP1;ratioP1;P2;durP2;ratioP2
71821;SDS011;64096;52.548;13.406;2022-12-18T06:06:00;29.30;;;14.18;;
71821;SDS011;64096;52.548;13.406;2022-12-18T06:08:26;32.30;;;13.35;;
71821;SDS011;64096;52.548;13.406;2022-12-18T06:10:53;27.75;;;12.18;;
71821;SDS011;64096;52.548;13.406;2022-12-18T06:13:19;27.52;;;13.00;;
71821;SDS011;64096;52.548;13.406;2022-12-18T06:15:45;31.13;;;14.25;;
71821;SDS011;64096;52.548;13.406;2022-12-18T06:18:11;33.25;;;14.68;;
71821;SDS011;64096;52.548;13.406;2022-12-18T06:20:38;36.10;;;15.75;;
71821;SDS011;64096;52.548;13.406;2022-12-18T06:23:06;36.28;;;15.40;;
71821;SDS011;64096;52.548;13.406;2022-12-18T06:25:32;36.22;;;14.75;;
71821;SDS011;64096;52.548;13.406;2022-12-18T06:27:58;33.33;;;15.43;;
71821;SDS011;64096;52.548;13.406;2022-12-18T06:30:24;36.40;;;16.55;;
71821;SDS011;64096;52.548;13.406;2022-12-18T06:32:50;33.20;;;15.15;;
71821;SDS011;64096;52.548;13.406;2022-12-18T06:35:17;36.05;;;16.15;;
71821;SDS011;64096;52.548;13.406;2022-12-18T06:37:43;35.03;;;16.95;;
71821;SDS011;64096;52.548;13.406;2022-12-18T06:40:09;33.45;;;16.00;;
71821;SDS011;64096;52.548;13.406;2022-12-18T06:42:35;35.55;;;16.25;;
71821;SDS011;64096;52.548;13.406;2022-12-18T06:45:01;34.83;;;15.52;;
71821;SDS011;64096;52.548;13.406;2022-12-18T06:47:27;31.63;;;14.13;;
71821;SDS011;64096;52.548;13.406;2022-12-18T06:49:53;37.60;;;16.27;;
71821;SDS011;64096;52.548;13.406;2022-12-18T06:52:19;36.50;;;16.70;;
71821;SDS011;64096;52.548;13.406;2022-12-18T06:54:45;34.85;;;15.43;;
71821;SDS011;64096;52.548;13.406;2022-12-18T06:57:11;33.63;;;15.32;;
71821;SDS011;64096;52.548;13.406;2022-12-18T06:59:37;32.40;;;15.07;;
71821;SDS011;64096;52.548;13.406;2022-12-18T07:02:03;40.40;;;18.75;;
71821;SDS011;64096;52.548;13.406;2022-12-18T07:04:29;39.70;;;17.42;;
71821;SDS011;64096;52.548;13.406;2022-12-18T07:06:55;38.60;;;17.95;;
71821;SDS011;64096;52.548;13.406;2022-12-18T07:09:22;39.63;;;17.15;;
71821;SDS011;64096;52.548;13.406;2022-12-18T07:11:48;36.22;;;16.27;;
71821;SDS011;64096;52.548;13.406;2022-12-18T07:14:14;36.42;;;17.13;;
71821;SDS011;64096;52.548;13.406;2022-12-18T07:16:40;37.53;;;16.95;;
71821;SDS011;64096;52.548;13.406;2022-12-18T07:19:06;33.38;;;15.15;;
71821;SDS011;64096;52.548;13.406;2022-12-18T07:21:32;35.92;;;16.15;;
71821;SDS011;64096;52.548;13.406;2022-12-18T07:23:58;36.40;;;16.42;;
71821;SDS011;64096;52.548;13.406;2022-12-18T07:26:24;35.50;;;15.15;;
71821;SDS011;64096;52.548;13.406;2022-12-18T07:28:53;35.85;;;16.80;;
71821;SDS011;64096;52.548;13.406;2022-12-18T07:31:20;33.75;;;15.13;;
71821;SDS011;64096;52.548;13.406;2022-12-18T07:33:47;37.25;;;17.83;;
71821;SDS011;64096;52.548;13.406;2022-12-18T07:36:13;35.05;;;15.98;;
71821;SDS011;64096;52.548;13.406;2022-12-18T07:38:39;34.90;;;15.80;;
71821;SDS011;64096;52.548;13.406;2022-12-18T07:41:07;36.58;;;15.93;;
71821;SDS011;64096;52.548;13.406;2022-12-18T07:43:33;35.55;;;14.68;;
71821;SDS011;64096;52.548;13.406;2022-12-18T07:45:59;32.10;;;15.10;;
71821;SDS011;64096;52.548;13.406;2022-12-18T07:48:25;35.45;;;15.80;;
71821;SDS011;64096;52.548;13.406;2022-12-18T07:50:52;36.70;;;15.90;;
71821;SDS011;64096;52.548;13.406;2022-12-18T07:53:18;35.85;;;15.95;;
71821;SDS011;64096;52.548;13.406;2022-12-18T07:55:44;39.53;;;17.95;;
71821;SDS011;64096;52.548;13.406;2022-12-18T07:58:10;37.05;;;16.60;;
71821;SDS011;64096;52.548;13.406;2022-12-18T08:00:36;34.35;;;15.18;;
71821;SDS011;64096;52.548;13.406;2022-12-18T08:03:02;36.03;;;15.55;;
71821;SDS011;64096;52.548;13.406;2022-12-18T08:05:28;30.13;;;14.40;;
71821;SDS011;64096;52.548;13.406;2022-12-18T08:07:54;36.47;;;15.48;;
71821;SDS011;64096;52.548;13.406;2022-12-18T08:10:21;32.83;;;15.63;;
71821;SDS011;64096;52.548;13.406;2022-12-18T08:12:50;35.25;;;16.15;;
71821;SDS011;64096;52.548;13.406;2022-12-18T08:15:17;38.92;;;17.48;;
71821;SDS011;64096;52.548;13.406;2022-12-18T08:17:43;33.88;;;15.85;;
71821;SDS011;64096;52.548;13.406;2022-12-18T08:20:09;32.80;;;14.68;;
71821;SDS011;64096;52.548;13.406;2022-12-18T08:22:35;34.92;;;15.95;;
71821;SDS011;64096;52.548;13.406;2022-12-18T08:25:02;35.45;;;17.15;;
71821;SDS011;64096;52.548;13.406;2022-12-18T08:27:28;34.38;;;16.05;;
71821;SDS011;64096;52.548;13.406;2022-12-18T08:29:54;31.35;;;15.80;;
71821;SDS011;64096;52.548;13.406;2022-12-18T08:32:20;29.75;;;14.73;;
71821;SDS011;64096;52.548;13.406;2022-12-18T08:34:46;29.67;;;13.90;;
71821;SDS011;64096;52.548;13.406;2022-12-18T08:37:12;28.85;;;14.07;;
71821;SDS011;64096;52.548;13.406;2022-12-18T08:39:38;32.10;;;14.35;;
71821;SDS011;64096;52.548;13.406;2022-12-18T08:42:05;29.75;;;14.38;;
71821;SDS011;64096;52.548;13.406;2022-12-18T08:44:49;30.55;;;14.57;;
71821;SDS011;64096;52.548;13.406;2022-12-18T08:47:16;29.42;;;14.40;;
71821;SDS011;64096;52.548;13.406;2022-12-18T08:49:42;30.23;;;14.63;;
71821;SDS011;64096;52.548;13.406;2022-12-18T08:52:08;28.65;;;14.18;;
71821;SDS011;64096;52.548;13.406;2022-12-18T08:54:34;30.60;;;15.00;;
71821;SDS011;64096;52.548;13.406;2022-12-18T08:57:00;26.55;;;12.82;;
71821;SDS011;64096;52.548;13.406;2022-12-18T08:59:27;30.05;;;14.50;;
71821;SDS011;64096;52.548;13.406;2022-12-18T09:01:53;31.50;;;15.98;;
71821;SDS011;64096;52.548;13.406;2022-12-18T09:04:20;31.80;;;15.25;;
71821;SDS011;64096;52.548;13.406;2022-12-18T09:06:46;27.80;;;13.80;;
71821;SDS011;64096;52.548;13.406;2022-12-18T09:09:12;30.52;;;13.63;;
71821;SDS011;64096;52.548;13.406;2022-12-18T09:11:38;30.42;;;14.98;;
71821;SDS011;64096;52.548;13.406;2022-12-18T09:14:05;30.38;;;13.80;;
71821;SDS011;64096;52.548;13.406;2022-12-18T09:16:31;29.98;;;14.48;;
71821;SDS011;64096;52.548;13.406;2022-12-18T09:18:57;27.77;;;13.55;;
71821;SDS011;64096;52.548;13.406;2022-12-18T09:21:28;26.52;;;13.13;;
71821;SDS011;64096;52.548;13.406;2022-12-18T09:23:55;26.10;;;13.40;;
71821;SDS011;64096;52.548;13.406;2022-12-18T09:26:22;29.65;;;13.75;;
71821;SDS011;64096;52.548;13.406;2022-12-18T09:28:48;28.23;;;12.95;;
71821;SDS011;64096;52.548;13.406;2022-12-18T09:31:15;28.75;;;13.68;;
71821;SDS011;64096;52.548;13.406;2022-12-18T09:33:41;28.23;;;14.40;;
71821;SDS011;64096;52.548;13.406;2022-12-18T09:36:08;28.13;;;13.75;;
71821;SDS011;64096;52.548;13.406;2022-12-18T09:38:34;26.35;;;13.90;;
71821;SDS011;64096;52.548;13.406;2022-12-18T09:43:46;26.35;;;13.77;;
71821;SDS011;64096;52.548;13.406;2022-12-18T09:46:17;27.23;;;13.65;;
71821;SDS011;64096;52.548;13.406;2022-12-18T09:48:46;32.42;;;15.30;;
71821;SDS011;64096;52.548;13.406;2022-12-18T09:51:18;25.30;;;13.57;;
71821;SDS011;64096;52.548;13.406;2022-12-18T09:53:47;33.90;;;15.27;;
71821;SDS011;64096;52.548;13.406;2022-12-18T09:56:16;28.17;;;13.68;;
71821;SDS011;64096;52.548;13.406;2022-12-18T09:58:48;31.75;;;14.38;;
71821;SDS011;64096;52.548;13.406;2022-12-18T10:01:20;29.88;;;14.30;;
71821;SDS011;64096;52.548;13.406;2022-12-18T10:03:47;30.80;;;15.02;;
71821;SDS011;64096;52.548;13.406;2022-12-18T10:06:15;32.17;;;14.68;;
71821;SDS011;64096;52.548;13.406;2022-12-18T10:13:57;31.25;;;14.25;;
71821;SDS011;64096;52.548;13.406;2022-12-18T10:16:28;24.92;;;13.15;;
71821;SDS011;64096;52.548;13.406;2022-12-18T10:24:12;28.27;;;13.35;;
71821;SDS011;64096;52.548;13.406;2022-12-18T10:26:40;29.55;;;13.45;;
71821;SDS011;64096;52.548;13.406;2022-12-18T10:29:13;29.23;;;14.57;;
71821;SDS011;64096;52.548;13.406;2022-12-18T10:31:40;34.50;;;15.93;;
71821;SDS011;64096;52.548;13.406;2022-12-18T10:34:09;29.45;;;14.27;;
71821;SDS011;64096;52.548;13.406;2022-12-18T10:36:35;29.17;;;14.63;;
71821;SDS011;64096;52.548;13.406;2022-12-18T10:39:15;32.15;;;14.13;;
71821;SDS011;64096;52.548;13.406;2022-12-18T10:41:41;25.73;;;12.85;;
71821;SDS011;64096;52.548;13.406;2022-12-18T10:46:36;30.15;;;14.77;;
71821;SDS011;64096;52.548;13.406;2022-12-18T10:49:02;30.00;;;14.98;;
71821;SDS011;64096;52.548;13.406;2022-12-18T10:56:22;29.17;;;14.73;;
71821;SDS011;64096;52.548;13.406;2022-12-18T10:59:02;33.17;;;16.25;;
71821;SDS011;64096;52.548;13.406;2022-12-18T11:01:36;29.48;;;13.75;;
71821;SDS011;64096;52.548;13.406;2022-12-18T11:04:13;32.85;;;14.63;;
71821;SDS011;64096;52.548;13.406;2022-12-18T11:09:20;32.55;;;14.80;;
71821;SDS011;64096;52.548;13.406;2022-12-18T11:11:52;30.65;;;15.43;;
71821;SDS011;64096;52.548;13.406;2022-12-18T11:14:29;32.75;;;15.77;;
71821;SDS011;64096;52.548;13.406;2022-12-18T11:16:57;33.15;;;14.55;;
71821;SDS011;64096;52.548;13.406;2022-12-18T11:19:31;32.60;;;15.90;;
71821;SDS011;64096;52.548;13.406;2022-12-18T11:21:58;31.60;;;15.18;;
71821;SDS011;64096;52.548;13.406;2022-12-18T11:26:51;29.27;;;14.88;;
71821;SDS011;64096;52.548;13.406;2022-12-18T11:29:18;32.88;;;15.05;;
71821;SDS011;64096;52.548;13.406;2022-12-18T11:31:48;28.77;;;14.35;;
71821;SDS011;64096;52.548;13.406;2022-12-18T11:34:28;24.90;;;12.75;;
71821;SDS011;64096;52.548;13.406;2022-12-18T11:36:56;28.60;;;12.73;;
71821;SDS011;64096;52.548;13.406;2022-12-18T11:39:33;25.48;;;13.13;;
71821;SDS011;64096;52.548;13.406;2022-12-18T11:42:04;29.40;;;14.15;;
71821;SDS011;64096;52.548;13.406;2022-12-18T11:50:00;24.77;;;13.13;;
71821;SDS011;64096;52.548;13.406;2022-12-18T11:52:27;28.05;;;13.80;;
71821;SDS011;64096;52.548;13.406;2022-12-18T11:54:55;27.42;;;13.43;;
71821;SDS011;64096;52.548;13.406;2022-12-18T11:57:40;27.75;;;13.35;;
71821;SDS011;64096;52.548;13.406;2022-12-18T12:00:20;28.50;;;13.77;;
71821;SDS011;64096;52.548;13.406;2022-12-18T12:05:27;24.50;;;13.70;;
71821;SDS011;64096;52.548;13.406;2022-12-18T12:08:09;25.73;;;12.80;;
71821;SDS011;64096;52.548;13.406;2022-12-18T12:13:10;26.25;;;11.93;;
71821;SDS011;64096;52.548;13.406;2022-12-18T12:18:18;28.58;;;13.93;;
71821;SDS011;64096;52.548;13.406;2022-12-18T12:21:09;22.35;;;11.02;;
71821;SDS011;64096;52.548;13.406;2022-12-18T12:26:10;23.70;;;11.82;;
71821;SDS011;64096;52.548;13.406;2022-12-18T12:36:17;20.75;;;10.38;;
71821;SDS011;64096;52.548;13.406;2022-12-18T12:38:48;20.58;;;10.70;;
71821;SDS011;64096;52.548;13.406;2022-12-18T12:41:23;24.42;;;12.25;;
71821;SDS011;64096;52.548;13.406;2022-12-18T12:44:13;21.17;;;12.00;;
71821;SDS011;64096;52.548;13.406;2022-12-18T12:46:41;22.40;;;11.48;;
71821;SDS011;64096;52.548;13.406;2022-12-18T12:49:14;22.65;;;11.95;;
71821;SDS011;64096;52.548;13.406;2022-12-18T12:51:45;27.67;;;13.30;;
71821;SDS011;64096;52.548;13.406;2022-12-18T12:54:16;25.10;;;12.52;;
71821;SDS011;64096;52.548;13.406;2022-12-18T12:57:04;21.55;;;11.13;;
71821;SDS011;64096;52.548;13.406;2022-12-18T12:59:36;23.67;;;12.93;;
71821;SDS011;64096;52.548;13.406;2022-12-18T13:04:52;22.17;;;11.98;;
71821;SDS011;64096;52.548;13.406;2022-12-18T13:07:29;23.35;;;12.07;;
71821;SDS011;64096;52.548;13.406;2022-12-18T13:10:22;27.20;;;13.55;;
71821;SDS011;64096;52.548;13.406;2022-12-18T13:13:00;30.08;;;14.70;;
71821;SDS011;64096;52.548;13.406;2022-12-18T13:21:08;23.50;;;12.25;;
71821;SDS011;64096;52.548;13.406;2022-12-18T13:25:49;22.02;;;11.45;;
71821;SDS011;64096;52.548;13.406;2022-12-18T13:28:16;24.27;;;12.80;;
71821;SDS011;64096;52.548;13.406;2022-12-18T13:30:50;25.67;;;13.20;;
71821;SDS011;64096;52.548;13.406;2022-12-18T13:38:32;25.20;;;13.93;;
71821;SDS011;64096;52.548;13.406;2022-12-18T13:43:36;26.80;;;13.35;;
71821;SDS011;64096;52.548;13.406;2022-12-18T13:46:18;26.45;;;13.85;;
71821;SDS011;64096;52.548;13.406;2022-12-18T13:48:58;24.60;;;13.00;;
71821;SDS011;64096;52.548;13.406;2022-12-18T13:51:25;26.30;;;13.10;;
71821;SDS011;64096;52.548;13.406;2022-12-18T13:53:56;25.65;;;14.25;;
71821;SDS011;64096;52.548;13.406;2022-12-18T13:56:26;22.08;;;12.82;;
